createdAt,value
2022-11-05T00:56:22.503Z,0
2022-11-05T01:09:32.597Z,0.01
2022-11-05T01:19:10.236Z,0
2022-11-05T02:28:43.807Z,0.01
2022-11-05T02:48:43.084Z,0
2022-11-05T03:33:26.840Z,0.01
2022-11-05T03:36:08.024Z,0
2022-11-05T05:34:33.989Z,0.01
2022-11-05T05:38:58.096Z,0.02
2022-11-05T05:41:51.776Z,0.03
2022-11-05T05:44:31.435Z,0.04
2022-11-05T05:46:56.841Z,0.06
2022-11-05T05:49:12.124Z,0.08
2022-11-05T05:52:07.986Z,0.13
2022-11-05T05:54:53.817Z,0.23
2022-11-05T05:57:25.289Z,0.36
2022-11-05T05:59:42.581Z,0.55
2022-11-05T06:01:45.905Z,0.81
2022-11-05T06:04:37.749Z,1.47
2022-11-05T06:07:15.396Z,2.21
2022-11-05T06:09:38.985Z,2.96
2022-11-05T06:11:48.313Z,3.65
2022-11-05T06:14:46.546Z,4.73
2022-11-05T06:17:30.584Z,5.84
2022-11-05T06:20:00.330Z,7.41
2022-11-05T06:22:15.829Z,9.47
2022-11-05T06:24:16.909Z,10.6
2022-11-05T06:27:07.075Z,13.45
2022-11-05T06:29:42.931Z,17.11
2022-11-05T06:32:04.465Z,21.09
2022-11-05T06:34:12.134Z,25.06
2022-11-05T06:37:08.231Z,31.2
2022-11-05T06:39:50.317Z,37.05
2022-11-05T06:42:19.162Z,42.62
2022-11-05T06:44:32.127Z,50.52
2022-11-05T06:46:31.734Z,57.4
2022-11-05T06:49:20.188Z,66.26
2022-11-05T06:51:54.220Z,74.98
2022-11-05T06:54:14.157Z,81.38
2022-11-05T06:56:20.118Z,85.52
2022-11-05T06:59:14.666Z,87.16
2022-11-05T07:01:54.942Z,90.6
2022-11-05T07:04:20.951Z,95.04
2022-11-05T07:06:36.770Z,98.24
2022-11-05T07:08:30.775Z,102.64
2022-11-05T07:11:17.238Z,106.44
2022-11-05T07:13:49.787Z,110.48
2022-11-05T07:16:07.517Z,114.2
2022-11-05T07:18:11.500Z,118.52
2022-11-05T07:21:04.401Z,123.56
2022-11-05T07:23:42.981Z,131.52
2022-11-05T07:26:07.389Z,143.04
2022-11-05T07:28:17.852Z,149.48
2022-11-05T07:31:16.917Z,152.88
2022-11-05T07:34:01.623Z,162.04
2022-11-05T07:36:32.032Z,198.1
2022-11-05T07:38:48.623Z,255.3
2022-11-05T07:40:50.911Z,306.8
2022-11-05T07:43:41.843Z,291.1
2022-11-05T07:46:18.643Z,272.1
2022-11-05T07:48:41.267Z,262.2
2022-11-05T07:50:49.700Z,263.4
2022-11-05T07:53:47.009Z,247.1
2022-11-05T07:56:29.966Z,303.7
2022-11-05T07:58:58.783Z,310.5
2022-11-05T08:01:13.489Z,354.2
2022-11-05T08:03:14.397Z,349.9
2022-11-05T08:06:03.256Z,354.7
2022-11-05T08:08:37.791Z,373.7
2022-11-05T08:10:58.628Z,415
2022-11-05T08:13:05.262Z,386.7
2022-11-05T08:16:00.519Z,498.5
2022-11-05T08:21:08.809Z,485.2
2022-11-05T08:23:21.547Z,604.8
2022-11-05T08:25:20.304Z,528.6
2022-11-05T08:28:07.731Z,488
2022-11-05T08:30:40.882Z,653.4
2022-11-05T08:32:59.861Z,628.8
2022-11-05T08:35:04.974Z,624.1
2022-11-05T08:37:58.265Z,477.9
2022-11-05T08:40:37.627Z,344.4
2022-11-05T08:43:02.956Z,273.6
2022-11-05T08:45:14.252Z,260.9
2022-11-05T08:48:13.875Z,256.4
2022-11-05T08:50:59.662Z,242.8
2022-11-05T08:53:31.098Z,286.9
2022-11-05T08:55:48.279Z,305.3
2022-11-05T08:57:51.527Z,379.6
2022-11-05T09:00:42.932Z,431
2022-11-05T09:03:20.496Z,438
2022-11-05T09:05:43.824Z,451.2
2022-11-05T09:07:57.953Z,466.4
2022-11-05T09:10:51.264Z,459.8
2022-11-05T09:13:35.044Z,456.8
2022-11-05T09:16:04.801Z,457.2
2022-11-05T09:18:20.295Z,461.4
2022-11-05T09:20:21.530Z,459
2022-11-05T09:23:11.849Z,436.6
2022-11-05T09:25:47.221Z,427.5
2022-11-05T09:28:08.781Z,404.8
2022-11-05T09:30:16.391Z,397.2
2022-11-05T09:33:12.856Z,342.7
2022-11-05T09:35:54.609Z,348
2022-11-05T09:38:22.399Z,321.2
2022-11-05T09:40:36.108Z,324.4
2022-11-05T09:42:35.692Z,345.7
2022-11-05T09:45:23.840Z,393.1
2022-11-05T09:47:57.960Z,418.5
2022-11-05T09:50:17.866Z,485.6
2022-11-05T09:52:23.055Z,724.8
2022-11-05T09:55:17.584Z,833.2
2022-11-05T09:57:57.739Z,1018.5
2022-11-05T10:00:23.732Z,1010.2
2022-11-05T10:02:35.868Z,960
2022-11-05T10:04:33.485Z,919
2022-11-05T10:07:20.006Z,974.4
2022-11-05T10:09:52.136Z,1003.8
2022-11-05T10:12:10.532Z,950
2022-11-05T10:14:14.238Z,914.5
2022-11-05T10:17:06.841Z,894.4
2022-11-05T10:19:45.382Z,796.8
2022-11-05T10:22:09.732Z,892.8
2022-11-05T10:24:19.774Z,904.6
2022-11-05T10:27:18.592Z,597.9
2022-11-05T10:30:03.357Z,909.1
2022-11-05T10:32:33.931Z,985.2
2022-11-05T10:34:50.291Z,915.5
2022-11-05T10:36:52.677Z,929.2
2022-11-05T10:39:43.649Z,935.6
2022-11-05T10:42:20.408Z,928.6
2022-11-05T10:44:42.733Z,944
2022-11-05T10:46:51.264Z,912
2022-11-05T10:49:48.431Z,896
2022-11-05T10:52:31.578Z,902.7
2022-11-05T10:55:00.427Z,774.4
2022-11-05T10:57:15.054Z,375
2022-11-05T10:59:15.630Z,552.3
2022-11-05T11:02:04.981Z,452.8
2022-11-05T11:04:39.874Z,954.2
2022-11-05T11:07:00.574Z,909.4
2022-11-05T11:09:07.209Z,889.2
2022-11-05T11:12:02.496Z,409.7
2022-11-05T11:14:43.626Z,719
2022-11-05T11:17:10.714Z,1279
2022-11-05T11:19:23.684Z,723.5
2022-11-05T11:21:22.275Z,1051.8
2022-11-05T11:24:09.783Z,993.2
2022-11-05T11:26:43.304Z,887.3
2022-11-05T11:29:02.010Z,879.3
2022-11-05T11:31:06.999Z,927.3
2022-11-05T11:34:00.726Z,833.9
2022-11-05T11:36:39.684Z,847
2022-11-05T11:39:04.771Z,824.6
2022-11-05T11:41:15.862Z,800.9
2022-11-05T11:44:15.582Z,832.6
2022-11-05T11:47:01.143Z,831.3
2022-11-05T11:49:32.647Z,855.6
2022-11-05T11:51:50.293Z,887.3
2022-11-05T11:53:52.874Z,901.1
2022-11-05T11:56:44.793Z,410.7
2022-11-05T11:59:30.782Z,861.1
2022-11-05T12:01:46.027Z,839.3
2022-11-05T12:03:55.373Z,842.2
2022-11-05T12:09:37.206Z,838
2022-11-05T12:12:06.708Z,844.4
2022-11-05T12:14:22.330Z,839.6
2022-11-05T12:16:23.617Z,729.6
2022-11-05T12:19:13.644Z,817.9
2022-11-05T12:21:52.805Z,725.1
2022-11-05T12:24:11.331Z,827.8
2022-11-05T12:26:18.766Z,802.8
2022-11-05T12:29:19.037Z,818.2
2022-11-05T12:31:56.718Z,830.4
2022-11-05T12:34:24.534Z,819.2
2022-11-05T12:36:38.160Z,769.2
2022-11-05T12:38:37.745Z,961.6
2022-11-05T12:41:25.983Z,1106.5
2022-11-05T12:43:59.945Z,1144.3
2022-11-05T12:46:19.853Z,1041.9
2022-11-05T12:48:28.402Z,808.6
2022-11-05T12:51:19.865Z,552.3
2022-11-05T12:54:00.230Z,923.2
2022-11-05T12:56:26.782Z,866.8
2022-11-05T12:58:37.974Z,551.8
2022-11-05T13:00:35.801Z,466.5
2022-11-05T13:03:22.172Z,414.4
2022-11-05T13:05:54.343Z,458
2022-11-05T13:08:12.320Z,323.3
2022-11-05T13:10:16.283Z,267
2022-11-05T13:13:08.927Z,334
2022-11-05T13:15:47.180Z,293
2022-11-05T13:18:11.452Z,302.8
2022-11-05T13:20:21.158Z,288.1
2022-11-05T13:23:19.867Z,212.6
2022-11-05T13:26:04.589Z,155.48
2022-11-05T13:28:35.220Z,194.9
2022-11-05T13:30:51.279Z,231.2
2022-11-05T13:32:53.506Z,265.1
2022-11-05T13:35:44.392Z,179.3
2022-11-05T13:38:20.921Z,155.44
2022-11-05T13:40:43.192Z,145.36
2022-11-05T13:42:51.514Z,121.08
2022-11-05T13:45:48.482Z,121.56
2022-11-05T13:48:31.161Z,317.2
2022-11-05T13:50:59.965Z,382
2022-11-05T13:53:14.626Z,186.8
2022-11-05T13:55:14.711Z,183.2
2022-11-05T13:58:03.911Z,178
2022-11-05T14:00:38.878Z,187.6
2022-11-05T14:02:59.565Z,193.6
2022-11-05T14:05:06.304Z,216.8
2022-11-05T14:08:01.608Z,302.7
2022-11-05T14:10:42.610Z,302.4
2022-11-05T14:13:09.293Z,252
2022-11-05T14:15:21.898Z,212.1
2022-11-05T14:17:20.448Z,208.6
2022-11-05T14:20:07.711Z,228.8
2022-11-05T14:22:41.035Z,239.4
2022-11-05T14:25:00.105Z,254.7
2022-11-05T14:27:04.843Z,267.5
2022-11-05T14:29:58.467Z,276.2
2022-11-05T14:32:37.733Z,281.1
2022-11-05T14:35:02.789Z,266.9
2022-11-05T14:37:13.842Z,255.8
2022-11-05T14:40:13.603Z,240
2022-11-05T14:42:59.139Z,234
2022-11-05T14:45:30.404Z,221.8
2022-11-05T14:47:47.600Z,210.4
2022-11-05T14:49:50.580Z,202.4
2022-11-05T14:52:42.280Z,191.6
2022-11-05T14:55:19.980Z,181.2
2022-11-05T14:57:43.485Z,175.2
2022-11-05T14:59:52.634Z,167
2022-11-05T15:02:50.732Z,156.88
2022-11-05T15:05:34.118Z,148.96
2022-11-05T15:08:03.742Z,135.92
2022-11-05T15:10:19.077Z,126.12
2022-11-05T15:12:20.419Z,119
2022-11-05T15:15:11.220Z,103.24
2022-11-05T15:17:46.183Z,85.32
2022-11-05T15:20:07.894Z,67.14
2022-11-05T15:22:15.513Z,56.76
2022-11-05T15:25:11.504Z,46.18
2022-11-05T15:27:53.709Z,35.36
2022-11-05T15:30:21.607Z,31.04
2022-11-05T15:32:38.394Z,29.24
2022-11-05T15:34:34.898Z,25.22
2022-11-05T15:37:23.163Z,21.9
2022-11-05T15:39:37.721Z,17.96
2022-11-05T15:41:38.302Z,16.24
2022-11-05T15:44:27.550Z,17.68
2022-11-05T15:47:02.833Z,17.88
2022-11-05T15:49:23.997Z,17.61
2022-11-05T15:51:30.886Z,15.02
2022-11-05T15:54:30.786Z,12.64
2022-11-05T15:57:07.564Z,11.13
2022-11-05T15:59:34.876Z,9.15
2022-11-05T16:01:48.185Z,6.5
2022-11-05T16:03:47.004Z,5.3
2022-11-05T16:06:34.639Z,3.89
2022-11-05T16:09:07.992Z,2.56
2022-11-05T16:11:27.393Z,1.87
2022-11-05T16:13:32.535Z,1.37
2022-11-05T16:16:26.364Z,0.97
2022-11-05T16:19:06.158Z,0.57
2022-11-05T16:21:31.649Z,0.37
2022-11-05T16:23:42.972Z,0.26
2022-11-05T16:27:02.591Z,0.15
2022-11-05T16:29:29.225Z,0.09
2022-11-05T16:32:00.939Z,0.06
2022-11-05T16:34:18.245Z,0.04
2022-11-05T16:36:21.745Z,0.03
2022-11-05T16:39:13.741Z,0.02
2022-11-05T16:49:22.534Z,0.01
2022-11-05T22:24:24.600Z,0
2022-11-05T22:31:37.167Z,0.01
2022-11-05T22:41:46.063Z,0
2022-11-05T23:33:32.080Z,0.01
2022-11-05T23:40:48.817Z,0
2022-11-05T23:43:06.843Z,0.01
2022-11-05T23:48:03.131Z,0
